createdAt,value
2022-10-19T00:03:09.956Z,3.75
2022-10-19T00:06:34.721Z,3.42
2022-10-19T00:09:58.977Z,3.30
2022-10-19T00:13:21.866Z,3.53
2022-10-19T00:16:46.129Z,4.22
2022-10-19T00:20:09.830Z,3.95
2022-10-19T00:23:33.072Z,4.68
2022-10-19T00:26:57.328Z,4.93
2022-10-19T00:30:21.479Z,4.18
2022-10-19T00:33:46.697Z,3.88
2022-10-19T00:37:09.625Z,3.33
2022-10-19T00:40:38.494Z,3.40
2022-10-19T00:44:05.020Z,3.85
2022-10-19T00:47:28.614Z,4.10
2022-10-19T00:50:53.269Z,3.65
2022-10-19T00:54:18.445Z,4.35
2022-10-19T00:57:42.001Z,3.63
2022-10-19T01:01:07.166Z,3.70
2022-10-19T01:04:31.601Z,4.25
2022-10-19T01:07:55.612Z,3.53
2022-10-19T01:11:32.276Z,3.40
2022-10-19T01:15:07.129Z,3.38
2022-10-19T01:18:40.273Z,3.45
2022-10-19T01:22:13.972Z,4.55
2022-10-19T01:25:48.425Z,3.92
2022-10-19T01:29:19.364Z,3.28
2022-10-19T01:33:00.502Z,3.65
2022-10-19T01:36:31.448Z,3.80
2022-10-19T01:40:00.040Z,3.00
2022-10-19T01:43:34.006Z,3.20
2022-10-19T01:46:59.817Z,2.67
2022-10-19T01:50:29.672Z,2.90
2022-10-19T01:53:56.368Z,3.95
2022-10-19T01:57:24.765Z,3.53
2022-10-19T02:00:50.030Z,3.42
2022-10-19T02:04:15.329Z,3.58
2022-10-19T02:07:42.381Z,3.17
2022-10-19T02:11:05.980Z,3.97
2022-10-19T02:14:31.020Z,3.00
2022-10-19T02:17:57.297Z,3.75
2022-10-19T02:21:20.524Z,3.40
2022-10-19T02:24:44.797Z,2.55
2022-10-19T02:28:07.803Z,2.40
2022-10-19T02:31:31.254Z,3.20
2022-10-19T02:34:54.228Z,2.58
2022-10-19T02:38:20.279Z,3.38
2022-10-19T02:41:50.454Z,3.47
2022-10-19T02:45:18.376Z,3.83
2022-10-19T02:48:42.962Z,3.25
2022-10-19T02:52:07.725Z,3.00
2022-10-19T02:55:31.635Z,2.58
2022-10-19T02:58:56.004Z,3.25
2022-10-19T03:02:21.384Z,3.88
2022-10-19T03:05:44.377Z,2.88
2022-10-19T03:09:07.405Z,3.88
2022-10-19T03:12:30.279Z,3.42
2022-10-19T03:15:54.549Z,3.40
2022-10-19T03:19:17.441Z,2.63
2022-10-19T03:22:40.381Z,2.78
2022-10-19T03:26:04.340Z,2.95
2022-10-19T03:29:28.929Z,3.10
2022-10-19T03:32:53.173Z,2.70
2022-10-19T03:36:18.513Z,3.33
2022-10-19T03:39:41.425Z,2.42
2022-10-19T03:43:04.433Z,2.55
2022-10-19T03:46:27.816Z,3.45
2022-10-19T03:49:52.078Z,3.50
2022-10-19T03:53:15.886Z,2.78
2022-10-19T03:56:39.237Z,3.38
2022-10-19T04:00:02.127Z,2.63
2022-10-19T04:07:00.093Z,3.63
2022-10-19T04:10:22.939Z,2.65
2022-10-19T04:13:45.809Z,2.55
2022-10-19T04:17:08.746Z,3.55
2022-10-19T04:20:31.624Z,3.45
2022-10-19T04:23:59.552Z,3.42
2022-10-19T04:27:22.521Z,3.38
2022-10-19T04:30:45.436Z,2.78
2022-10-19T04:34:09.217Z,2.70
2022-10-19T04:37:32.474Z,3.38
2022-10-19T04:40:56.950Z,2.55
2022-10-19T04:44:19.871Z,3.05
2022-10-19T04:47:42.825Z,3.40
2022-10-19T04:51:06.381Z,3.45
2022-10-19T04:54:29.338Z,8.63
2022-10-19T04:57:53.582Z,4.63
2022-10-19T05:01:19.192Z,5.20
2022-10-19T05:04:45.146Z,5.88
2022-10-19T05:08:08.777Z,4.70
2022-10-19T05:11:31.670Z,5.68
2022-10-19T05:14:55.903Z,4.95
2022-10-19T05:18:18.780Z,3.97
2022-10-19T05:21:41.702Z,4.45
2022-10-19T05:25:05.045Z,5.15
2022-10-19T05:28:28.015Z,4.53
2022-10-19T05:31:52.326Z,4.38
2022-10-19T05:35:17.513Z,4.20
2022-10-19T05:38:43.507Z,4.18
2022-10-19T05:42:06.369Z,3.55
2022-10-19T05:45:29.294Z,4.20
2022-10-19T05:48:53.556Z,3.72
2022-10-19T05:52:17.702Z,3.78
2022-10-19T05:55:40.698Z,4.13
2022-10-19T05:59:05.994Z,3.88
2022-10-19T06:02:28.877Z,3.55
2022-10-19T06:05:53.883Z,3.97
2022-10-19T06:09:16.724Z,3.25
2022-10-19T06:12:39.618Z,3.25
2022-10-19T06:16:02.620Z,3.35
2022-10-19T06:19:25.592Z,4.90
2022-10-19T06:22:50.150Z,4.95
2022-10-19T06:26:15.314Z,5.38
2022-10-19T06:29:38.604Z,4.18
2022-10-19T06:33:01.562Z,3.47
2022-10-19T06:36:26.368Z,5.05
2022-10-19T06:39:50.673Z,3.67
2022-10-19T06:43:13.638Z,3.88
2022-10-19T06:46:36.497Z,3.58
2022-10-19T06:49:59.450Z,3.85
2022-10-19T06:53:22.355Z,3.90
2022-10-19T06:56:46.652Z,3.72
2022-10-19T07:00:10.765Z,4.00
2022-10-19T07:03:33.898Z,4.18
2022-10-19T07:06:56.858Z,3.95
2022-10-19T07:10:19.864Z,4.05
2022-10-19T07:13:44.354Z,3.72
2022-10-19T07:17:07.483Z,3.20
2022-10-19T07:20:30.397Z,4.03
2022-10-19T07:23:53.612Z,5.50
2022-10-19T07:27:16.558Z,4.63
2022-10-19T07:30:41.008Z,3.85
2022-10-19T07:34:05.677Z,5.15
2022-10-19T07:37:28.559Z,4.38
2022-10-19T07:40:51.460Z,4.05
2022-10-19T07:44:15.979Z,4.63
2022-10-19T07:47:40.257Z,3.60
2022-10-19T07:51:05.113Z,3.40
2022-10-19T07:54:28.205Z,3.80
2022-10-19T07:57:51.276Z,4.53
2022-10-19T08:01:15.741Z,4.30
2022-10-19T08:04:59.537Z,3.90
2022-10-19T08:08:22.994Z,3.90
2022-10-19T08:11:45.922Z,3.38
2022-10-19T08:15:09.470Z,3.42
2022-10-19T08:21:57.197Z,4.45
2022-10-19T08:25:20.105Z,3.67
2022-10-19T08:28:43.224Z,3.65
2022-10-19T08:32:06.506Z,3.17
2022-10-19T08:35:30.612Z,4.18
2022-10-19T08:38:54.886Z,3.95
2022-10-19T08:42:21.258Z,3.40
2022-10-19T08:45:48.921Z,3.20
2022-10-19T08:49:16.808Z,3.80
2022-10-19T08:52:40.511Z,3.30
2022-10-19T08:56:38.907Z,3.47
2022-10-19T09:00:07.623Z,3.95
2022-10-19T09:03:56.218Z,3.97
2022-10-19T09:07:27.160Z,3.92
2022-10-19T09:10:53.422Z,3.92
2022-10-19T09:14:22.568Z,3.47
2022-10-19T09:17:45.490Z,3.28
2022-10-19T09:21:13.951Z,3.30
2022-10-19T09:24:44.453Z,3.67
2022-10-19T09:28:20.478Z,3.55
2022-10-19T09:31:45.409Z,4.40
2022-10-19T09:35:22.790Z,3.90
2022-10-19T09:38:45.734Z,3.40
2022-10-19T09:42:13.579Z,4.55
2022-10-19T09:45:43.080Z,3.63
2022-10-19T09:49:07.395Z,4.75
2022-10-19T09:52:35.690Z,3.63
2022-10-19T09:56:01.591Z,4.03
2022-10-19T09:59:29.542Z,4.20
2022-10-19T10:02:53.521Z,4.05
2022-10-19T10:06:19.021Z,3.72
2022-10-19T10:09:44.954Z,3.47
2022-10-19T10:13:07.912Z,3.70
2022-10-19T10:20:27.577Z,3.15
2022-10-19T10:24:05.238Z,2.95
2022-10-19T10:27:33.751Z,3.38
2022-10-19T10:31:01.682Z,2.70
2022-10-19T10:34:52.808Z,6.13
2022-10-19T10:38:20.887Z,3.88
2022-10-19T10:41:48.077Z,8.65
2022-10-19T10:45:19.630Z,7.05
2022-10-19T10:48:45.276Z,8.27
2022-10-19T10:52:11.249Z,6.97
2022-10-19T10:55:35.171Z,7.07
2022-10-19T10:59:02.961Z,5.50
2022-10-19T11:02:32.782Z,5.90
2022-10-19T11:05:59.250Z,5.82
2022-10-19T11:09:30.344Z,6.32
2022-10-19T11:13:02.647Z,5.78
2022-10-19T11:16:31.020Z,5.47
2022-10-19T11:19:54.067Z,5.80
2022-10-19T11:23:20.527Z,4.32
2022-10-19T11:26:54.342Z,5.55
2022-10-19T11:30:19.995Z,4.95
2022-10-19T11:33:53.558Z,4.22
2022-10-19T11:37:26.070Z,3.42
2022-10-19T11:44:51.444Z,4.50
2022-10-19T11:48:43.881Z,3.85
2022-10-19T11:52:13.893Z,4.70
2022-10-19T11:55:44.824Z,4.72
2022-10-19T11:59:16.183Z,5.30
2022-10-19T12:02:59.402Z,6.38
2022-10-19T12:06:35.210Z,5.63
2022-10-19T12:10:08.750Z,6.32
2022-10-19T12:13:41.627Z,4.35
2022-10-19T12:17:09.689Z,3.25
2022-10-19T12:20:37.689Z,2.50
2022-10-19T12:24:03.153Z,1.80
2022-10-19T12:27:33.032Z,2.72
2022-10-19T12:30:57.592Z,3.13
2022-10-19T12:34:32.094Z,3.03
2022-10-19T12:37:59.373Z,2.85
2022-10-19T12:41:28.512Z,2.53
2022-10-19T12:45:14.708Z,2.95
2022-10-19T12:48:39.194Z,2.33
2022-10-19T12:52:03.157Z,2.45
2022-10-19T12:55:34.430Z,2.35
2022-10-19T12:59:01.354Z,2.63
2022-10-19T13:06:00.956Z,1.75
2022-10-19T13:09:28.961Z,2.42
2022-10-19T13:12:52.431Z,1.80
2022-10-19T13:17:03.176Z,2.55
2022-10-19T13:20:54.844Z,3.05
2022-10-19T13:24:26.757Z,2.35
2022-10-19T13:27:50.401Z,2.13
2022-10-19T13:31:26.921Z,2.60
2022-10-19T13:34:50.097Z,2.78
2022-10-19T13:38:26.119Z,2.30
2022-10-19T13:41:53.971Z,1.60
2022-10-19T13:45:23.553Z,2.80
2022-10-19T13:49:32.551Z,3.22
2022-10-19T13:53:20.773Z,2.85
2022-10-19T13:56:59.714Z,2.42
2022-10-19T14:00:26.709Z,2.72
2022-10-19T14:04:10.824Z,1.80
2022-10-19T14:07:43.372Z,2.25
2022-10-19T14:11:13.345Z,2.25
2022-10-19T14:14:45.238Z,1.80
2022-10-19T14:18:26.910Z,1.73
2022-10-19T14:21:49.818Z,1.98
2022-10-19T14:25:20.450Z,2.05
2022-10-19T14:28:44.248Z,2.05
2022-10-19T14:32:10.239Z,2.35
2022-10-19T14:35:35.648Z,2.55
2022-10-19T14:38:58.601Z,2.10
2022-10-19T14:42:22.095Z,2.85
2022-10-19T14:45:45.005Z,2.72
2022-10-19T14:49:12.521Z,2.63
2022-10-19T14:52:39.600Z,2.42
2022-10-19T14:56:07.239Z,3.10
2022-10-19T14:59:34.760Z,2.47
2022-10-19T15:03:01.016Z,2.67
2022-10-19T15:06:29.334Z,2.22
2022-10-19T15:09:55.966Z,2.40
2022-10-19T15:13:25.202Z,2.53
2022-10-19T15:16:53.378Z,2.25
2022-10-19T15:20:25.501Z,2.72
2022-10-19T15:23:51.103Z,1.90
2022-10-19T15:27:21.600Z,1.40
2022-10-19T15:30:44.621Z,2.35
2022-10-19T15:34:17.458Z,2.45
2022-10-19T15:37:44.581Z,2.60
2022-10-19T15:41:16.360Z,2.40
2022-10-19T15:44:43.490Z,2.08
2022-10-19T15:48:24.563Z,1.90
2022-10-19T15:51:48.823Z,2.83
2022-10-19T15:55:14.718Z,2.15
2022-10-19T15:58:38.982Z,2.45
2022-10-19T16:02:01.971Z,2.75
2022-10-19T16:05:25.240Z,2.00
2022-10-19T16:08:48.424Z,1.90
2022-10-19T16:12:11.934Z,2.65
2022-10-19T16:15:36.171Z,2.20
2022-10-19T16:19:00.377Z,2.72
2022-10-19T16:22:23.366Z,2.17
2022-10-19T16:25:46.302Z,2.28
2022-10-19T16:29:09.317Z,2.72
2022-10-19T16:32:33.562Z,2.25
2022-10-19T16:35:56.512Z,2.50
2022-10-19T16:39:19.515Z,2.28
2022-10-19T16:42:42.439Z,2.50
2022-10-19T16:46:05.984Z,3.67
2022-10-19T16:49:30.391Z,2.80
2022-10-19T16:53:05.025Z,3.58
2022-10-19T16:56:31.843Z,2.45
2022-10-19T16:59:55.367Z,2.13
2022-10-19T17:03:18.260Z,2.35
2022-10-19T17:06:42.530Z,2.95
2022-10-19T17:10:06.358Z,2.35
2022-10-19T17:13:29.297Z,3.10
2022-10-19T17:16:52.171Z,2.47
2022-10-19T17:20:15.691Z,2.63
2022-10-19T17:23:40.213Z,2.30
2022-10-19T17:27:03.944Z,2.75
2022-10-19T17:30:27.123Z,2.35
2022-10-19T17:33:50.590Z,2.35
2022-10-19T17:37:13.482Z,2.30
2022-10-19T17:40:38.039Z,2.17
2022-10-19T17:44:00.912Z,2.50
2022-10-19T17:47:23.841Z,2.15
2022-10-19T17:50:56.357Z,2.55
2022-10-19T17:54:19.281Z,2.28
2022-10-19T17:57:43.497Z,2.38
2022-10-19T18:01:07.502Z,2.15
2022-10-19T18:04:30.510Z,2.38
2022-10-19T18:07:53.713Z,2.55
2022-10-19T18:11:19.370Z,2.17
2022-10-19T18:14:44.644Z,2.60
2022-10-19T18:18:07.561Z,1.90
2022-10-19T18:21:32.637Z,2.17
2022-10-19T18:24:55.541Z,2.38
2022-10-19T18:28:18.550Z,2.20
2022-10-19T18:31:43.189Z,2.63
2022-10-19T18:35:06.921Z,2.83
2022-10-19T18:38:29.844Z,3.13
2022-10-19T18:41:54.439Z,2.88
2022-10-19T18:45:18.008Z,2.45
2022-10-19T18:48:42.252Z,3.72
2022-10-19T18:52:06.273Z,2.92
2022-10-19T18:55:29.151Z,2.95
2022-10-19T18:58:52.324Z,2.95
2022-10-19T19:02:22.418Z,4.38
2022-10-19T19:05:52.958Z,3.72
2022-10-19T19:09:17.494Z,3.17
2022-10-19T19:12:40.452Z,3.10
2022-10-19T19:16:03.556Z,3.45
2022-10-19T19:19:27.511Z,3.05
2022-10-19T19:22:51.716Z,3.53
2022-10-19T19:26:15.874Z,3.65
2022-10-19T19:29:39.000Z,2.90
2022-10-19T19:33:02.031Z,3.42
2022-10-19T19:36:24.906Z,3.10
2022-10-19T19:39:50.165Z,3.20
2022-10-19T19:43:15.593Z,4.10
2022-10-19T19:46:40.401Z,3.20
2022-10-19T19:50:03.505Z,3.22
2022-10-19T19:53:26.418Z,3.20
2022-10-19T19:56:52.772Z,3.28
2022-10-19T20:00:16.373Z,3.10
2022-10-19T20:03:39.842Z,3.08
2022-10-19T20:07:03.010Z,3.13
2022-10-19T20:10:26.138Z,3.80
2022-10-19T20:13:50.915Z,3.05
2022-10-19T20:17:13.841Z,3.67
2022-10-19T20:20:36.810Z,2.97
2022-10-19T20:23:59.878Z,3.00
2022-10-19T20:27:23.097Z,3.03
2022-10-19T20:30:47.410Z,2.70
2022-10-19T20:34:12.273Z,3.45
2022-10-19T20:37:35.665Z,3.53
2022-10-19T20:40:58.686Z,2.88
2022-10-19T20:44:21.879Z,3.20
2022-10-19T20:47:46.161Z,2.83
2022-10-19T20:51:11.001Z,3.10
2022-10-19T20:54:34.200Z,2.83
2022-10-19T20:57:57.091Z,2.85
2022-10-19T21:01:20.190Z,3.10
2022-10-19T21:04:44.458Z,3.30
2022-10-19T21:08:09.375Z,3.33
2022-10-19T21:11:34.509Z,3.55
2022-10-19T21:14:57.413Z,2.90
2022-10-19T21:18:20.369Z,3.90
2022-10-19T21:21:46.447Z,3.90
2022-10-19T21:25:10.797Z,3.55
2022-10-19T21:28:33.676Z,3.75
2022-10-19T21:31:56.724Z,3.47
2022-10-19T21:35:19.610Z,4.03
2022-10-19T21:38:44.142Z,3.00
2022-10-19T21:42:07.256Z,4.22
2022-10-19T21:45:30.920Z,2.75
2022-10-19T21:48:55.731Z,2.58
2022-10-19T21:52:18.618Z,2.90
2022-10-19T21:55:42.849Z,3.03
2022-10-19T21:59:05.943Z,3.10
2022-10-19T22:02:28.885Z,3.25
2022-10-19T22:05:52.549Z,3.08
2022-10-19T22:09:17.606Z,3.33
2022-10-19T22:12:41.863Z,2.72
2022-10-19T22:16:06.170Z,3.67
2022-10-19T22:19:29.162Z,3.10
2022-10-19T22:22:54.897Z,3.42
2022-10-19T22:26:19.562Z,3.10
2022-10-19T22:29:44.016Z,2.47
2022-10-19T22:33:07.658Z,2.63
2022-10-19T22:36:30.889Z,3.10
2022-10-19T22:39:53.749Z,3.10
2022-10-19T22:43:16.671Z,3.00
2022-10-19T22:46:40.877Z,3.10
2022-10-19T22:50:04.603Z,2.50
2022-10-19T22:53:27.565Z,3.08
2022-10-19T22:56:50.561Z,3.33
2022-10-19T23:00:14.328Z,2.42
2022-10-19T23:03:40.291Z,2.75
2022-10-19T23:07:03.216Z,2.45
2022-10-19T23:10:26.181Z,2.97
2022-10-19T23:13:49.054Z,2.85
2022-10-19T23:17:11.913Z,2.53
2022-10-19T23:20:36.190Z,2.70
2022-10-19T23:23:59.288Z,2.38
2022-10-19T23:27:22.157Z,2.72
2022-10-19T23:30:45.054Z,3.08
2022-10-19T23:34:07.925Z,3.15
2022-10-19T23:37:32.233Z,2.65
2022-10-19T23:40:55.127Z,3.35
2022-10-19T23:44:17.990Z,3.10
2022-10-19T23:47:40.858Z,2.83
2022-10-19T23:51:06.415Z,2.40
2022-10-19T23:54:30.685Z,2.30
2022-10-19T23:57:53.612Z,3.05
